sensor_id;sensor_type;location;lat;lon;timestamp;P1;durP1;ratioP1;P2;durP2;ratioP2
31282;SDS011;17915;52.540;13.604;2023-07-29T00:02:08;12.03;;;11.07;;
31282;SDS011;17915;52.540;13.604;2023-07-29T00:04:33;14.17;;;11.97;;
31282;SDS011;17915;52.540;13.604;2023-07-29T00:06:59;17.63;;;12.57;;
31282;SDS011;17915;52.540;13.604;2023-07-29T00:09:24;11.80;;;10.80;;
31282;SDS011;17915;52.540;13.604;2023-07-29T00:11:49;12.70;;;11.70;;
31282;SDS011;17915;52.540;13.604;2023-07-29T00:14:15;11.77;;;10.57;;
31282;SDS011;17915;52.540;13.604;2023-07-29T00:16:40;12.63;;;11.57;;
31282;SDS011;17915;52.540;13.604;2023-07-29T00:19:06;11.23;;;10.17;;
31282;SDS011;17915;52.540;13.604;2023-07-29T00:21:31;13.33;;;12.03;;
31282;SDS011;17915;52.540;13.604;2023-07-29T00:23:56;14.07;;;12.83;;
31282;SDS011;17915;52.540;13.604;2023-07-29T00:26:22;18.70;;;11.93;;
31282;SDS011;17915;52.540;13.604;2023-07-29T00:28:48;17.75;;;13.50;;
31282;SDS011;17915;52.540;13.604;2023-07-29T00:31:13;14.50;;;13.13;;
31282;SDS011;17915;52.540;13.604;2023-07-29T00:33:39;18.63;;;13.07;;
31282;SDS011;17915;52.540;13.604;2023-07-29T00:36:04;13.30;;;12.20;;
31282;SDS011;17915;52.540;13.604;2023-07-29T00:38:30;16.27;;;12.47;;
31282;SDS011;17915;52.540;13.604;2023-07-29T00:40:58;12.87;;;11.70;;
31282;SDS011;17915;52.540;13.604;2023-07-29T00:43:25;12.15;;;11.13;;
31282;SDS011;17915;52.540;13.604;2023-07-29T00:45:51;11.90;;;11.03;;
31282;SDS011;17915;52.540;13.604;2023-07-29T00:48:16;15.23;;;12.70;;
31282;SDS011;17915;52.540;13.604;2023-07-29T00:50:42;13.30;;;11.93;;
31282;SDS011;17915;52.540;13.604;2023-07-29T00:53:07;14.33;;;12.70;;
31282;SDS011;17915;52.540;13.604;2023-07-29T00:55:32;13.13;;;11.83;;
31282;SDS011;17915;52.540;13.604;2023-07-29T00:57:58;13.93;;;12.57;;
31282;SDS011;17915;52.540;13.604;2023-07-29T01:00:23;13.77;;;12.40;;
31282;SDS011;17915;52.540;13.604;2023-07-29T01:02:49;14.68;;;13.30;;
31282;SDS011;17915;52.540;13.604;2023-07-29T01:05:16;13.77;;;12.40;;
31282;SDS011;17915;52.540;13.604;2023-07-29T01:13:41;17.83;;;13.70;;
31282;SDS011;17915;52.540;13.604;2023-07-29T01:16:11;14.88;;;12.65;;
31282;SDS011;17915;52.540;13.604;2023-07-29T01:18:42;14.07;;;12.80;;
31282;SDS011;17915;52.540;13.604;2023-07-29T01:21:11;13.63;;;12.43;;
31282;SDS011;17915;52.540;13.604;2023-07-29T01:23:37;13.73;;;12.25;;
31282;SDS011;17915;52.540;13.604;2023-07-29T01:26:02;12.27;;;11.20;;
31282;SDS011;17915;52.540;13.604;2023-07-29T01:28:28;14.07;;;12.20;;
31282;SDS011;17915;52.540;13.604;2023-07-29T01:30:57;13.87;;;12.43;;
31282;SDS011;17915;52.540;13.604;2023-07-29T01:33:37;12.10;;;10.95;;
31282;SDS011;17915;52.540;13.604;2023-07-29T01:36:13;12.02;;;11.02;;
31282;SDS011;17915;52.540;13.604;2023-07-29T01:38:41;12.25;;;11.00;;
31282;SDS011;17915;52.540;13.604;2023-07-29T01:41:07;13.48;;;12.38;;
31282;SDS011;17915;52.540;13.604;2023-07-29T01:43:33;14.02;;;12.73;;
31282;SDS011;17915;52.540;13.604;2023-07-29T01:46:00;14.17;;;12.83;;
31282;SDS011;17915;52.540;13.604;2023-07-29T01:48:26;17.95;;;13.00;;
31282;SDS011;17915;52.540;13.604;2023-07-29T01:50:52;13.82;;;12.63;;
31282;SDS011;17915;52.540;13.604;2023-07-29T01:53:18;16.77;;;13.30;;
31282;SDS011;17915;52.540;13.604;2023-07-29T01:55:44;14.63;;;13.33;;
31282;SDS011;17915;52.540;13.604;2023-07-29T02:00:35;12.63;;;11.32;;
31282;SDS011;17915;52.540;13.604;2023-07-29T02:03:00;12.37;;;11.27;;
31282;SDS011;17915;52.540;13.604;2023-07-29T02:05:26;16.17;;;12.00;;
31282;SDS011;17915;52.540;13.604;2023-07-29T02:07:51;12.83;;;11.50;;
31282;SDS011;17915;52.540;13.604;2023-07-29T02:10:17;12.67;;;11.40;;
31282;SDS011;17915;52.540;13.604;2023-07-29T02:12:42;13.33;;;11.93;;
31282;SDS011;17915;52.540;13.604;2023-07-29T02:15:08;11.93;;;10.80;;
31282;SDS011;17915;52.540;13.604;2023-07-29T02:19:59;13.25;;;11.93;;
31282;SDS011;17915;52.540;13.604;2023-07-29T02:22:25;12.20;;;11.10;;
31282;SDS011;17915;52.540;13.604;2023-07-29T02:24:50;22.10;;;13.37;;
31282;SDS011;17915;52.540;13.604;2023-07-29T02:27:15;17.47;;;12.70;;
31282;SDS011;17915;52.540;13.604;2023-07-29T02:29:41;14.80;;;12.67;;
31282;SDS011;17915;52.540;13.604;2023-07-29T02:32:06;15.30;;;14.00;;
31282;SDS011;17915;52.540;13.604;2023-07-29T02:34:31;18.00;;;12.63;;
31282;SDS011;17915;52.540;13.604;2023-07-29T02:36:57;13.00;;;11.90;;
31282;SDS011;17915;52.540;13.604;2023-07-29T02:39:22;14.50;;;11.40;;
31282;SDS011;17915;52.540;13.604;2023-07-29T02:41:48;14.55;;;12.65;;
31282;SDS011;17915;52.540;13.604;2023-07-29T02:44:14;13.43;;;11.13;;
31282;SDS011;17915;52.540;13.604;2023-07-29T02:46:40;15.50;;;12.20;;
31282;SDS011;17915;52.540;13.604;2023-07-29T02:49:05;13.93;;;12.47;;
31282;SDS011;17915;52.540;13.604;2023-07-29T02:51:31;23.00;;;14.80;;
31282;SDS011;17915;52.540;13.604;2023-07-29T02:53:56;13.60;;;11.90;;
31282;SDS011;17915;52.540;13.604;2023-07-29T02:56:22;13.23;;;11.90;;
31282;SDS011;17915;52.540;13.604;2023-07-29T02:58:47;11.10;;;10.00;;
31282;SDS011;17915;52.540;13.604;2023-07-29T03:01:12;12.37;;;11.13;;
31282;SDS011;17915;52.540;13.604;2023-07-29T03:03:38;13.03;;;11.83;;
31282;SDS011;17915;52.540;13.604;2023-07-29T03:06:05;13.93;;;11.07;;
31282;SDS011;17915;52.540;13.604;2023-07-29T03:08:34;13.45;;;10.23;;
31282;SDS011;17915;52.540;13.604;2023-07-29T03:11:04;11.32;;;10.02;;
31282;SDS011;17915;52.540;13.604;2023-07-29T03:13:39;11.68;;;10.68;;
31282;SDS011;17915;52.540;13.604;2023-07-29T03:16:05;14.57;;;13.07;;
31282;SDS011;17915;52.540;13.604;2023-07-29T03:18:32;12.60;;;10.98;;
31282;SDS011;17915;52.540;13.604;2023-07-29T03:20:57;10.30;;;9.53;;
31282;SDS011;17915;52.540;13.604;2023-07-29T03:23:22;14.50;;;12.27;;
31282;SDS011;17915;52.540;13.604;2023-07-29T03:25:48;13.70;;;11.27;;
31282;SDS011;17915;52.540;13.604;2023-07-29T03:28:16;14.82;;;10.57;;
31282;SDS011;17915;52.540;13.604;2023-07-29T03:30:41;16.57;;;12.17;;
31282;SDS011;17915;52.540;13.604;2023-07-29T03:33:07;13.13;;;11.87;;
31282;SDS011;17915;52.540;13.604;2023-07-29T03:35:32;12.43;;;11.47;;
31282;SDS011;17915;52.540;13.604;2023-07-29T03:37:58;11.77;;;10.53;;
31282;SDS011;17915;52.540;13.604;2023-07-29T03:40:23;11.80;;;10.60;;
31282;SDS011;17915;52.540;13.604;2023-07-29T03:42:48;10.33;;;9.67;;
31282;SDS011;17915;52.540;13.604;2023-07-29T03:45:14;12.90;;;11.23;;
31282;SDS011;17915;52.540;13.604;2023-07-29T03:47:40;13.80;;;12.50;;
31282;SDS011;17915;52.540;13.604;2023-07-29T03:50:05;14.60;;;12.87;;
31282;SDS011;17915;52.540;13.604;2023-07-29T03:52:31;12.20;;;11.03;;
31282;SDS011;17915;52.540;13.604;2023-07-29T03:54:56;12.10;;;11.10;;
31282;SDS011;17915;52.540;13.604;2023-07-29T03:57:21;13.40;;;12.20;;
31282;SDS011;17915;52.540;13.604;2023-07-29T03:59:47;11.53;;;10.53;;
31282;SDS011;17915;52.540;13.604;2023-07-29T04:02:12;10.87;;;10.03;;
31282;SDS011;17915;52.540;13.604;2023-07-29T04:04:38;11.10;;;10.10;;
31282;SDS011;17915;52.540;13.604;2023-07-29T04:07:03;12.27;;;8.87;;
31282;SDS011;17915;52.540;13.604;2023-07-29T04:09:29;9.05;;;8.40;;
31282;SDS011;17915;52.540;13.604;2023-07-29T04:11:54;8.93;;;8.13;;
31282;SDS011;17915;52.540;13.604;2023-07-29T04:14:20;9.43;;;8.60;;
31282;SDS011;17915;52.540;13.604;2023-07-29T04:16:45;11.00;;;8.70;;
31282;SDS011;17915;52.540;13.604;2023-07-29T04:19:11;10.20;;;9.40;;
31282;SDS011;17915;52.540;13.604;2023-07-29T04:21:36;9.23;;;8.53;;
31282;SDS011;17915;52.540;13.604;2023-07-29T04:24:01;8.65;;;8.05;;
31282;SDS011;17915;52.540;13.604;2023-07-29T04:26:27;8.10;;;7.30;;
31282;SDS011;17915;52.540;13.604;2023-07-29T04:28:52;15.70;;;8.47;;
31282;SDS011;17915;52.540;13.604;2023-07-29T04:31:18;8.10;;;7.53;;
31282;SDS011;17915;52.540;13.604;2023-07-29T04:33:43;8.20;;;7.53;;
31282;SDS011;17915;52.540;13.604;2023-07-29T04:36:08;8.63;;;7.80;;
31282;SDS011;17915;52.540;13.604;2023-07-29T04:38:34;8.60;;;7.90;;
31282;SDS011;17915;52.540;13.604;2023-07-29T04:40:59;7.23;;;6.77;;
31282;SDS011;17915;52.540;13.604;2023-07-29T04:43:30;9.52;;;8.43;;
31282;SDS011;17915;52.540;13.604;2023-07-29T04:45:56;7.63;;;7.07;;
31282;SDS011;17915;52.540;13.604;2023-07-29T04:48:21;7.50;;;7.00;;
31282;SDS011;17915;52.540;13.604;2023-07-29T04:50:47;8.85;;;7.53;;
31282;SDS011;17915;52.540;13.604;2023-07-29T04:53:12;7.27;;;6.67;;
31282;SDS011;17915;52.540;13.604;2023-07-29T04:55:38;7.50;;;7.00;;
31282;SDS011;17915;52.540;13.604;2023-07-29T04:58:03;7.70;;;7.20;;
31282;SDS011;17915;52.540;13.604;2023-07-29T05:00:28;6.93;;;6.07;;
31282;SDS011;17915;52.540;13.604;2023-07-29T05:02:54;7.25;;;6.78;;
31282;SDS011;17915;52.540;13.604;2023-07-29T05:05:19;7.40;;;6.53;;
31282;SDS011;17915;52.540;13.604;2023-07-29T05:07:44;7.07;;;6.67;;
31282;SDS011;17915;52.540;13.604;2023-07-29T05:10:10;6.57;;;6.17;;
31282;SDS011;17915;52.540;13.604;2023-07-29T05:15:01;7.25;;;6.80;;
31282;SDS011;17915;52.540;13.604;2023-07-29T05:17:27;7.35;;;6.80;;
31282;SDS011;17915;52.540;13.604;2023-07-29T05:19:53;7.82;;;7.25;;
31282;SDS011;17915;52.540;13.604;2023-07-29T05:22:18;6.68;;;6.10;;
31282;SDS011;17915;52.540;13.604;2023-07-29T05:24:44;7.47;;;6.97;;
31282;SDS011;17915;52.540;13.604;2023-07-29T05:27:09;12.88;;;7.43;;
31282;SDS011;17915;52.540;13.604;2023-07-29T05:29:34;7.83;;;6.37;;
31282;SDS011;17915;52.540;13.604;2023-07-29T05:32:00;7.53;;;6.82;;
31282;SDS011;17915;52.540;13.604;2023-07-29T05:34:26;7.82;;;7.25;;
31282;SDS011;17915;52.540;13.604;2023-07-29T05:36:51;7.47;;;6.88;;
31282;SDS011;17915;52.540;13.604;2023-07-29T05:39:17;7.93;;;7.32;;
31282;SDS011;17915;52.540;13.604;2023-07-29T05:41:42;9.83;;;8.10;;
31282;SDS011;17915;52.540;13.604;2023-07-29T05:44:07;9.47;;;8.57;;
31282;SDS011;17915;52.540;13.604;2023-07-29T05:46:33;8.03;;;7.43;;
31282;SDS011;17915;52.540;13.604;2023-07-29T05:48:58;9.17;;;8.57;;
31282;SDS011;17915;52.540;13.604;2023-07-29T05:51:23;9.50;;;8.77;;
31282;SDS011;17915;52.540;13.604;2023-07-29T05:53:49;8.80;;;8.10;;
31282;SDS011;17915;52.540;13.604;2023-07-29T05:56:14;8.33;;;7.83;;
31282;SDS011;17915;52.540;13.604;2023-07-29T05:58:40;8.90;;;8.25;;
31282;SDS011;17915;52.540;13.604;2023-07-29T06:01:05;8.95;;;8.32;;
31282;SDS011;17915;52.540;13.604;2023-07-29T06:03:30;7.93;;;7.30;;
31282;SDS011;17915;52.540;13.604;2023-07-29T06:05:56;7.87;;;7.27;;
31282;SDS011;17915;52.540;13.604;2023-07-29T06:08:21;10.03;;;7.80;;
31282;SDS011;17915;52.540;13.604;2023-07-29T06:10:47;8.13;;;7.33;;
31282;SDS011;17915;52.540;13.604;2023-07-29T06:13:12;7.73;;;7.13;;
31282;SDS011;17915;52.540;13.604;2023-07-29T06:15:37;7.77;;;7.33;;
31282;SDS011;17915;52.540;13.604;2023-07-29T06:18:03;8.60;;;7.93;;
31282;SDS011;17915;52.540;13.604;2023-07-29T06:20:28;7.93;;;7.33;;
31282;SDS011;17915;52.540;13.604;2023-07-29T06:22:54;9.43;;;6.73;;
31282;SDS011;17915;52.540;13.604;2023-07-29T06:25:19;11.40;;;7.73;;
31282;SDS011;17915;52.540;13.604;2023-07-29T06:27:44;7.73;;;7.13;;
31282;SDS011;17915;52.540;13.604;2023-07-29T06:30:10;8.15;;;7.45;;
31282;SDS011;17915;52.540;13.604;2023-07-29T06:32:35;8.35;;;7.43;;
31282;SDS011;17915;52.540;13.604;2023-07-29T06:35:01;6.87;;;6.30;;
31282;SDS011;17915;52.540;13.604;2023-07-29T06:37:26;6.10;;;5.70;;
31282;SDS011;17915;52.540;13.604;2023-07-29T06:39:52;6.32;;;5.82;;
31282;SDS011;17915;52.540;13.604;2023-07-29T06:42:17;6.40;;;6.05;;
31282;SDS011;17915;52.540;13.604;2023-07-29T06:44:43;7.97;;;7.00;;
31282;SDS011;17915;52.540;13.604;2023-07-29T06:47:10;6.03;;;5.68;;
31282;SDS011;17915;52.540;13.604;2023-07-29T06:49:36;7.47;;;6.18;;
31282;SDS011;17915;52.540;13.604;2023-07-29T06:52:01;6.50;;;6.00;;
31282;SDS011;17915;52.540;13.604;2023-07-29T06:54:27;6.80;;;6.32;;
31282;SDS011;17915;52.540;13.604;2023-07-29T06:56:52;6.00;;;5.38;;
31282;SDS011;17915;52.540;13.604;2023-07-29T06:59:18;5.33;;;5.00;;
31282;SDS011;17915;52.540;13.604;2023-07-29T07:01:43;5.87;;;5.40;;
31282;SDS011;17915;52.540;13.604;2023-07-29T07:04:08;7.17;;;5.13;;
31282;SDS011;17915;52.540;13.604;2023-07-29T07:06:34;5.43;;;5.10;;
31282;SDS011;17915;52.540;13.604;2023-07-29T07:08:59;6.00;;;5.40;;
31282;SDS011;17915;52.540;13.604;2023-07-29T07:11:25;7.13;;;4.93;;
31282;SDS011;17915;52.540;13.604;2023-07-29T07:13:50;5.43;;;5.03;;
31282;SDS011;17915;52.540;13.604;2023-07-29T07:16:16;7.13;;;5.07;;
31282;SDS011;17915;52.540;13.604;2023-07-29T07:18:41;6.97;;;5.27;;
31282;SDS011;17915;52.540;13.604;2023-07-29T07:21:07;4.60;;;4.30;;
31282;SDS011;17915;52.540;13.604;2023-07-29T07:23:32;6.90;;;4.97;;
31282;SDS011;17915;52.540;13.604;2023-07-29T07:25:57;4.87;;;4.53;;
31282;SDS011;17915;52.540;13.604;2023-07-29T07:28:23;5.00;;;4.60;;
31282;SDS011;17915;52.540;13.604;2023-07-29T07:30:48;8.60;;;4.70;;
31282;SDS011;17915;52.540;13.604;2023-07-29T07:33:14;4.37;;;4.17;;
31282;SDS011;17915;52.540;13.604;2023-07-29T07:35:39;9.10;;;4.30;;
31282;SDS011;17915;52.540;13.604;2023-07-29T07:38:04;5.43;;;4.83;;
31282;SDS011;17915;52.540;13.604;2023-07-29T07:40:32;6.65;;;4.30;;
31282;SDS011;17915;52.540;13.604;2023-07-29T07:42:58;5.88;;;5.10;;
31282;SDS011;17915;52.540;13.604;2023-07-29T07:45:23;7.65;;;4.88;;
31282;SDS011;17915;52.540;13.604;2023-07-29T07:47:51;11.85;;;4.97;;
31282;SDS011;17915;52.540;13.604;2023-07-29T07:50:16;5.43;;;4.93;;
31282;SDS011;17915;52.540;13.604;2023-07-29T07:52:42;6.97;;;4.70;;
31282;SDS011;17915;52.540;13.604;2023-07-29T07:55:07;7.17;;;4.83;;
31282;SDS011;17915;52.540;13.604;2023-07-29T07:57:33;4.97;;;4.57;;
31282;SDS011;17915;52.540;13.604;2023-07-29T07:59:58;11.27;;;4.83;;
31282;SDS011;17915;52.540;13.604;2023-07-29T08:02:24;5.57;;;5.18;;
31282;SDS011;17915;52.540;13.604;2023-07-29T08:04:49;4.90;;;4.60;;
31282;SDS011;17915;52.540;13.604;2023-07-29T08:07:14;5.38;;;4.88;;
31282;SDS011;17915;52.540;13.604;2023-07-29T08:09:40;6.60;;;5.20;;
31282;SDS011;17915;52.540;13.604;2023-07-29T08:12:05;4.73;;;4.43;;
31282;SDS011;17915;52.540;13.604;2023-07-29T08:14:31;5.68;;;4.47;;
31282;SDS011;17915;52.540;13.604;2023-07-29T08:16:56;4.28;;;3.88;;
31282;SDS011;17915;52.540;13.604;2023-07-29T08:19:22;7.07;;;4.55;;
31282;SDS011;17915;52.540;13.604;2023-07-29T08:21:48;4.43;;;4.13;;
31282;SDS011;17915;52.540;13.604;2023-07-29T08:24:13;7.05;;;4.38;;
31282;SDS011;17915;52.540;13.604;2023-07-29T08:26:39;4.60;;;4.30;;
31282;SDS011;17915;52.540;13.604;2023-07-29T08:29:04;7.63;;;4.80;;
31282;SDS011;17915;52.540;13.604;2023-07-29T08:33:58;4.30;;;4.10;;
31282;SDS011;17915;52.540;13.604;2023-07-29T08:36:24;5.30;;;4.93;;
31282;SDS011;17915;52.540;13.604;2023-07-29T08:41:31;6.97;;;4.53;;
31282;SDS011;17915;52.540;13.604;2023-07-29T08:44:02;8.77;;;3.97;;
31282;SDS011;17915;52.540;13.604;2023-07-29T08:46:32;5.68;;;4.00;;
31282;SDS011;17915;52.540;13.604;2023-07-29T08:48:58;4.63;;;4.32;;
31282;SDS011;17915;52.540;13.604;2023-07-29T08:53:49;6.28;;;4.40;;
31282;SDS011;17915;52.540;13.604;2023-07-29T08:58:40;4.70;;;3.75;;
31282;SDS011;17915;52.540;13.604;2023-07-29T09:03:31;4.55;;;4.22;;
31282;SDS011;17915;52.540;13.604;2023-07-29T09:08:23;4.28;;;3.88;;
31282;SDS011;17915;52.540;13.604;2023-07-29T09:10:49;7.47;;;4.57;;
31282;SDS011;17915;52.540;13.604;2023-07-29T09:15:40;4.47;;;4.17;;
31282;SDS011;17915;52.540;13.604;2023-07-29T09:18:17;4.28;;;3.40;;
31282;SDS011;17915;52.540;13.604;2023-07-29T09:20:45;4.32;;;3.60;;
31282;SDS011;17915;52.540;13.604;2023-07-29T09:23:11;4.40;;;4.10;;
31282;SDS011;17915;52.540;13.604;2023-07-29T09:25:37;4.93;;;4.32;;
31282;SDS011;17915;52.540;13.604;2023-07-29T09:28:07;4.07;;;3.78;;
31282;SDS011;17915;52.540;13.604;2023-07-29T09:30:34;5.45;;;3.50;;
31282;SDS011;17915;52.540;13.604;2023-07-29T09:32:59;3.78;;;3.58;;
31282;SDS011;17915;52.540;13.604;2023-07-29T09:35:27;10.55;;;3.70;;
31282;SDS011;17915;52.540;13.604;2023-07-29T09:37:53;3.28;;;3.05;;
31282;SDS011;17915;52.540;13.604;2023-07-29T09:40:19;4.50;;;4.10;;
31282;SDS011;17915;52.540;13.604;2023-07-29T09:42:48;3.50;;;3.30;;
31282;SDS011;17915;52.540;13.604;2023-07-29T09:45:23;4.03;;;3.72;;
31282;SDS011;17915;52.540;13.604;2023-07-29T09:47:49;3.28;;;3.17;;
31282;SDS011;17915;52.540;13.604;2023-07-29T09:50:14;3.30;;;3.10;;
31282;SDS011;17915;52.540;13.604;2023-07-29T09:52:40;3.40;;;3.08;;
31282;SDS011;17915;52.540;13.604;2023-07-29T09:55:06;7.47;;;3.38;;
31282;SDS011;17915;52.540;13.604;2023-07-29T09:57:32;3.38;;;3.03;;
31282;SDS011;17915;52.540;13.604;2023-07-29T09:59:57;3.58;;;3.10;;
31282;SDS011;17915;52.540;13.604;2023-07-29T10:04:50;3.05;;;2.88;;
31282;SDS011;17915;52.540;13.604;2023-07-29T10:07:17;4.28;;;3.15;;
31282;SDS011;17915;52.540;13.604;2023-07-29T10:12:07;4.88;;;3.28;;
31282;SDS011;17915;52.540;13.604;2023-07-29T10:14:34;3.20;;;3.00;;
31282;SDS011;17915;52.540;13.604;2023-07-29T10:19:25;5.18;;;3.03;;
31282;SDS011;17915;52.540;13.604;2023-07-29T10:24:18;2.72;;;2.38;;
31282;SDS011;17915;52.540;13.604;2023-07-29T10:26:46;3.42;;;3.13;;
31282;SDS011;17915;52.540;13.604;2023-07-29T10:29:13;4.60;;;2.90;;
31282;SDS011;17915;52.540;13.604;2023-07-29T10:31:40;2.95;;;2.75;;
31282;SDS011;17915;52.540;13.604;2023-07-29T10:34:07;5.10;;;3.00;;
31282;SDS011;17915;52.540;13.604;2023-07-29T10:36:33;2.83;;;2.72;;
31282;SDS011;17915;52.540;13.604;2023-07-29T10:38:58;2.80;;;2.65;;
31282;SDS011;17915;52.540;13.604;2023-07-29T10:41:23;2.70;;;2.55;;
31282;SDS011;17915;52.540;13.604;2023-07-29T10:43:49;2.70;;;2.42;;
31282;SDS011;17915;52.540;13.604;2023-07-29T10:51:21;2.10;;;2.00;;
31282;SDS011;17915;52.540;13.604;2023-07-29T10:54:18;1.58;;;1.58;;
31282;SDS011;17915;52.540;13.604;2023-07-29T10:56:48;2.72;;;2.50;;
31282;SDS011;17915;52.540;13.604;2023-07-29T11:01:43;2.40;;;2.20;;
31282;SDS011;17915;52.540;13.604;2023-07-29T11:09:42;6.60;;;2.08;;
31282;SDS011;17915;52.540;13.604;2023-07-29T11:12:53;2.07;;;1.87;;
31282;SDS011;17915;52.540;13.604;2023-07-29T11:17:36;2.00;;;1.90;;
31282;SDS011;17915;52.540;13.604;2023-07-29T11:20:03;2.15;;;2.05;;
31282;SDS011;17915;52.540;13.604;2023-07-29T11:24:55;2.55;;;2.35;;
31282;SDS011;17915;52.540;13.604;2023-07-29T11:29:46;2.63;;;2.50;;
31282;SDS011;17915;52.540;13.604;2023-07-29T11:34:37;2.30;;;2.20;;
31282;SDS011;17915;52.540;13.604;2023-07-29T11:37:02;11.18;;;3.55;;
31282;SDS011;17915;52.540;13.604;2023-07-29T11:39:28;10.52;;;3.95;;
31282;SDS011;17915;52.540;13.604;2023-07-29T11:41:53;7.37;;;3.00;;
31282;SDS011;17915;52.540;13.604;2023-07-29T11:44:19;26.43;;;3.57;;
31282;SDS011;17915;52.540;13.604;2023-07-29T11:46:44;4.60;;;2.92;;
31282;SDS011;17915;52.540;13.604;2023-07-29T11:49:10;3.83;;;3.27;;
31282;SDS011;17915;52.540;13.604;2023-07-29T11:51:38;3.13;;;2.83;;
31282;SDS011;17915;52.540;13.604;2023-07-29T11:54:04;3.72;;;2.83;;
31282;SDS011;17915;52.540;13.604;2023-07-29T11:56:30;3.42;;;2.95;;
31282;SDS011;17915;52.540;13.604;2023-07-29T11:58:55;17.45;;;3.60;;
31282;SDS011;17915;52.540;13.604;2023-07-29T12:01:21;10.70;;;3.42;;
31282;SDS011;17915;52.540;13.604;2023-07-29T12:03:47;8.35;;;3.50;;
31282;SDS011;17915;52.540;13.604;2023-07-29T12:06:13;2.88;;;2.70;;
31282;SDS011;17915;52.540;13.604;2023-07-29T12:08:39;3.80;;;3.37;;
31282;SDS011;17915;52.540;13.604;2023-07-29T12:11:04;3.87;;;3.50;;
31282;SDS011;17915;52.540;13.604;2023-07-29T12:13:29;3.50;;;3.13;;
31282;SDS011;17915;52.540;13.604;2023-07-29T12:16:00;8.03;;;2.87;;
31282;SDS011;17915;52.540;13.604;2023-07-29T12:18:33;7.50;;;2.63;;
31282;SDS011;17915;52.540;13.604;2023-07-29T12:20:58;4.80;;;4.43;;
31282;SDS011;17915;52.540;13.604;2023-07-29T12:23:24;3.00;;;2.72;;
31282;SDS011;17915;52.540;13.604;2023-07-29T12:25:57;2.72;;;2.53;;
31282;SDS011;17915;52.540;13.604;2023-07-29T12:28:23;4.95;;;3.60;;
31282;SDS011;17915;52.540;13.604;2023-07-29T12:30:53;3.97;;;3.67;;
31282;SDS011;17915;52.540;13.604;2023-07-29T12:36:07;3.75;;;2.90;;
31282;SDS011;17915;52.540;13.604;2023-07-29T12:38:32;3.92;;;3.15;;
31282;SDS011;17915;52.540;13.604;2023-07-29T12:40:58;4.33;;;3.90;;
31282;SDS011;17915;52.540;13.604;2023-07-29T12:43:24;4.57;;;4.07;;
31282;SDS011;17915;52.540;13.604;2023-07-29T12:45:50;4.88;;;3.60;;
31282;SDS011;17915;52.540;13.604;2023-07-29T12:48:15;5.03;;;3.80;;
31282;SDS011;17915;52.540;13.604;2023-07-29T12:50:41;3.07;;;2.87;;
31282;SDS011;17915;52.540;13.604;2023-07-29T12:53:06;4.47;;;2.93;;
31282;SDS011;17915;52.540;13.604;2023-07-29T12:57:58;7.15;;;2.83;;
31282;SDS011;17915;52.540;13.604;2023-07-29T13:00:24;4.95;;;3.00;;
31282;SDS011;17915;52.540;13.604;2023-07-29T13:02:49;4.55;;;2.58;;
31282;SDS011;17915;52.540;13.604;2023-07-29T13:05:15;3.80;;;2.80;;
31282;SDS011;17915;52.540;13.604;2023-07-29T13:07:40;2.67;;;2.57;;
31282;SDS011;17915;52.540;13.604;2023-07-29T13:10:07;2.90;;;2.47;;
31282;SDS011;17915;52.540;13.604;2023-07-29T13:12:34;3.58;;;2.97;;
31282;SDS011;17915;52.540;13.604;2023-07-29T13:14:59;2.58;;;2.33;;
31282;SDS011;17915;52.540;13.604;2023-07-29T13:17:25;3.40;;;3.10;;
31282;SDS011;17915;52.540;13.604;2023-07-29T13:19:50;3.30;;;3.00;;
31282;SDS011;17915;52.540;13.604;2023-07-29T13:22:16;2.83;;;2.70;;
31282;SDS011;17915;52.540;13.604;2023-07-29T13:24:41;2.67;;;2.53;;
31282;SDS011;17915;52.540;13.604;2023-07-29T13:27:07;5.23;;;2.83;;
31282;SDS011;17915;52.540;13.604;2023-07-29T13:29:32;2.65;;;2.50;;
31282;SDS011;17915;52.540;13.604;2023-07-29T13:31:57;2.30;;;2.20;;
31282;SDS011;17915;52.540;13.604;2023-07-29T13:34:23;3.40;;;2.47;;
31282;SDS011;17915;52.540;13.604;2023-07-29T13:36:48;6.82;;;3.05;;
31282;SDS011;17915;52.540;13.604;2023-07-29T13:39:14;3.60;;;3.23;;
31282;SDS011;17915;52.540;13.604;2023-07-29T13:41:40;3.15;;;2.92;;
31282;SDS011;17915;52.540;13.604;2023-07-29T13:44:05;5.10;;;3.83;;
31282;SDS011;17915;52.540;13.604;2023-07-29T13:46:31;4.60;;;4.17;;
31282;SDS011;17915;52.540;13.604;2023-07-29T13:48:56;3.47;;;3.10;;
31282;SDS011;17915;52.540;13.604;2023-07-29T13:51:22;3.58;;;3.08;;
31282;SDS011;17915;52.540;13.604;2023-07-29T13:53:47;3.40;;;3.10;;
31282;SDS011;17915;52.540;13.604;2023-07-29T13:56:13;5.70;;;2.88;;
31282;SDS011;17915;52.540;13.604;2023-07-29T13:58:38;3.60;;;2.97;;
31282;SDS011;17915;52.540;13.604;2023-07-29T14:01:05;3.45;;;3.00;;
31282;SDS011;17915;52.540;13.604;2023-07-29T14:03:30;2.87;;;2.67;;
31282;SDS011;17915;52.540;13.604;2023-07-29T14:05:55;6.53;;;2.97;;
31282;SDS011;17915;52.540;13.604;2023-07-29T14:08:21;2.67;;;2.50;;
31282;SDS011;17915;52.540;13.604;2023-07-29T14:10:48;3.15;;;2.95;;
31282;SDS011;17915;52.540;13.604;2023-07-29T14:13:14;2.25;;;2.15;;
31282;SDS011;17915;52.540;13.604;2023-07-29T14:15:39;2.50;;;2.30;;
31282;SDS011;17915;52.540;13.604;2023-07-29T14:18:04;2.27;;;2.17;;
31282;SDS011;17915;52.540;13.604;2023-07-29T14:20:31;2.67;;;2.47;;
31282;SDS011;17915;52.540;13.604;2023-07-29T14:22:57;3.20;;;2.20;;
31282;SDS011;17915;52.540;13.604;2023-07-29T14:25:22;2.25;;;1.92;;
31282;SDS011;17915;52.540;13.604;2023-07-29T14:27:47;1.70;;;1.60;;
31282;SDS011;17915;52.540;13.604;2023-07-29T14:30:13;1.80;;;1.70;;
31282;SDS011;17915;52.540;13.604;2023-07-29T14:32:38;2.05;;;1.95;;
31282;SDS011;17915;52.540;13.604;2023-07-29T14:35:04;3.33;;;2.33;;
31282;SDS011;17915;52.540;13.604;2023-07-29T14:37:30;1.90;;;1.80;;
31282;SDS011;17915;52.540;13.604;2023-07-29T14:39:56;1.52;;;1.52;;
31282;SDS011;17915;52.540;13.604;2023-07-29T14:42:22;1.80;;;1.70;;
31282;SDS011;17915;52.540;13.604;2023-07-29T14:44:48;2.30;;;2.00;;
31282;SDS011;17915;52.540;13.604;2023-07-29T14:47:13;1.80;;;1.70;;
31282;SDS011;17915;52.540;13.604;2023-07-29T14:49:39;2.35;;;2.20;;
31282;SDS011;17915;52.540;13.604;2023-07-29T14:52:04;2.67;;;2.43;;
31282;SDS011;17915;52.540;13.604;2023-07-29T14:54:30;1.63;;;1.60;;
31282;SDS011;17915;52.540;13.604;2023-07-29T14:56:56;1.77;;;1.77;;
31282;SDS011;17915;52.540;13.604;2023-07-29T14:59:21;2.13;;;2.00;;
31282;SDS011;17915;52.540;13.604;2023-07-29T15:01:47;2.40;;;2.20;;
31282;SDS011;17915;52.540;13.604;2023-07-29T15:04:12;2.10;;;2.00;;
31282;SDS011;17915;52.540;13.604;2023-07-29T15:06:37;2.33;;;2.23;;
31282;SDS011;17915;52.540;13.604;2023-07-29T15:09:04;2.20;;;2.10;;
31282;SDS011;17915;52.540;13.604;2023-07-29T15:11:30;2.00;;;1.90;;
31282;SDS011;17915;52.540;13.604;2023-07-29T15:13:57;3.08;;;2.13;;
31282;SDS011;17915;52.540;13.604;2023-07-29T15:16:23;1.75;;;1.65;;
31282;SDS011;17915;52.540;13.604;2023-07-29T15:18:49;6.47;;;2.10;;
31282;SDS011;17915;52.540;13.604;2023-07-29T15:21:14;2.10;;;2.00;;
31282;SDS011;17915;52.540;13.604;2023-07-29T15:23:40;5.47;;;2.17;;
31282;SDS011;17915;52.540;13.604;2023-07-29T15:26:05;2.50;;;2.40;;
31282;SDS011;17915;52.540;13.604;2023-07-29T15:28:30;1.90;;;1.80;;